createdAt,value
2019-02-28T00:02:29.666Z,70.70
2019-02-28T00:05:05.821Z,71.30
2019-02-28T00:07:32.322Z,71.50
2019-02-28T00:10:05.279Z,72.00
2019-02-28T00:12:39.050Z,71.90
2019-02-28T00:15:09.708Z,72.10
2019-02-28T00:17:43.536Z,71.90
2019-02-28T00:20:16.295Z,71.90
2019-02-28T00:22:49.285Z,72.10
2019-02-28T00:25:20.267Z,72.20
2019-02-28T00:27:52.647Z,71.80
2019-02-28T00:30:23.939Z,71.50
2019-02-28T00:32:59.375Z,70.90
2019-02-28T00:35:31.544Z,70.90
2019-02-28T00:38:02.084Z,71.80
2019-02-28T00:40:34.448Z,71.90
2019-02-28T00:43:08.155Z,71.80
2019-02-28T00:45:39.001Z,72.40
2019-02-28T00:48:09.523Z,72.00
2019-02-28T00:50:40.150Z,72.30
2019-02-28T00:53:12.404Z,72.70
2019-02-28T00:55:45.981Z,73.10
2019-02-28T00:58:28.642Z,73.40
2019-02-28T01:00:56.225Z,72.70
2019-02-28T01:03:27.562Z,72.80
2019-02-28T01:05:58.123Z,72.60
2019-02-28T01:08:30.306Z,72.90
2019-02-28T01:11:04.169Z,72.80
2019-02-28T01:13:35.846Z,73.00
2019-02-28T01:16:08.256Z,73.20
2019-02-28T01:18:40.011Z,73.30
2019-02-28T01:21:11.974Z,73.20
2019-02-28T01:23:42.512Z,73.00
2019-02-28T01:26:13.187Z,71.80
2019-02-28T01:28:46.113Z,71.10
2019-02-28T01:31:16.613Z,70.30
2019-02-28T01:33:47.024Z,69.10
2019-02-28T01:36:17.520Z,68.80
2019-02-28T01:38:47.967Z,68.20
2019-02-28T01:41:20.802Z,67.70
2019-02-28T01:43:53.445Z,68.00
2019-02-28T01:46:28.517Z,67.90
2019-02-28T01:49:03.773Z,67.60
2019-02-28T01:51:36.601Z,67.50
2019-02-28T01:54:11.906Z,66.60
2019-02-28T01:56:42.542Z,66.10
2019-02-28T01:59:21.581Z,66.40
2019-02-28T02:01:52.805Z,66.00
2019-02-28T02:04:23.302Z,66.30
2019-02-28T02:06:53.927Z,66.40
2019-02-28T02:09:27.224Z,66.50
2019-02-28T02:11:58.907Z,66.30
2019-02-28T02:14:31.664Z,67.00
2019-02-28T02:17:02.152Z,66.50
2019-02-28T02:19:33.028Z,66.40
2019-02-28T02:22:09.127Z,66.50
2019-02-28T02:24:36.008Z,67.10
2019-02-28T02:27:06.611Z,67.50
2019-02-28T02:29:37.700Z,67.80
2019-02-28T02:32:08.230Z,68.00
2019-02-28T02:34:38.752Z,68.40
2019-02-28T02:37:09.564Z,68.90
2019-02-28T02:39:40.115Z,69.40
2019-02-28T02:42:11.681Z,69.60
2019-02-28T02:44:42.732Z,69.90
2019-02-28T02:47:13.415Z,70.50
2019-02-28T02:49:55.968Z,70.70
2019-02-28T02:52:29.961Z,70.90
2019-02-28T02:54:58.827Z,71.10
2019-02-28T02:57:29.265Z,71.40
2019-02-28T02:59:59.740Z,71.40
2019-02-28T03:02:34.321Z,71.90
2019-02-28T03:05:08.400Z,72.60
2019-02-28T03:07:40.151Z,72.70
2019-02-28T03:10:12.137Z,72.60
2019-02-28T03:12:43.901Z,72.90
2019-02-28T03:15:16.678Z,72.90
2019-02-28T03:17:49.900Z,73.50
2019-02-28T03:20:20.887Z,73.90
2019-02-28T03:22:51.362Z,74.00
2019-02-28T03:25:28.288Z,74.10
2019-02-28T03:27:58.758Z,74.50
2019-02-28T03:30:32.889Z,74.70
2019-02-28T03:33:01.399Z,75.40
2019-02-28T03:35:40.295Z,75.40
2019-02-28T03:38:10.630Z,75.90
2019-02-28T03:40:40.170Z,76.30
2019-02-28T03:43:17.006Z,76.20
2019-02-28T03:45:47.509Z,76.40
2019-02-28T03:48:23.043Z,76.90
2019-02-28T03:50:59.982Z,78.00
2019-02-28T03:53:32.416Z,78.50
2019-02-28T03:56:03.205Z,78.40
2019-02-28T03:58:41.608Z,78.50
2019-02-28T04:01:10.200Z,78.70
2019-02-28T04:03:41.159Z,78.90
2019-02-28T04:06:17.488Z,79.60
2019-02-28T04:08:48.215Z,80.30
2019-02-28T04:11:18.729Z,80.40
2019-02-28T04:13:52.501Z,80.70
2019-02-28T04:16:22.415Z,80.60
2019-02-28T04:18:55.811Z,80.90
2019-02-28T04:21:28.279Z,80.90
2019-02-28T04:24:00.516Z,81.00
2019-02-28T04:26:34.028Z,81.30
2019-02-28T04:29:04.505Z,81.60
2019-02-28T04:31:36.980Z,81.60
2019-02-28T04:34:12.990Z,81.50
2019-02-28T04:36:39.535Z,81.50
2019-02-28T04:39:11.595Z,81.50
2019-02-28T04:41:43.748Z,82.10
2019-02-28T04:44:18.257Z,82.60
2019-02-28T04:46:52.576Z,82.90
2019-02-28T04:49:24.939Z,82.50
2019-02-28T04:51:57.307Z,82.30
2019-02-28T04:54:28.726Z,82.30
2019-02-28T04:56:59.267Z,82.60
2019-02-28T04:59:31.550Z,83.00
2019-02-28T05:02:03.296Z,83.20
2019-02-28T05:04:36.105Z,83.50
2019-02-28T05:07:12.001Z,83.80
2019-02-28T05:09:45.184Z,84.30
2019-02-28T05:12:19.377Z,84.50
2019-02-28T05:14:49.948Z,85.20
2019-02-28T05:17:22.290Z,86.50
2019-02-28T05:19:52.620Z,85.60
2019-02-28T05:22:27.576Z,85.80
2019-02-28T05:25:00.091Z,86.00
2019-02-28T05:27:35.426Z,85.90
2019-02-28T05:30:09.431Z,86.30
2019-02-28T05:32:39.874Z,86.20
2019-02-28T05:35:10.464Z,86.50
2019-02-28T05:37:46.894Z,87.00
2019-02-28T05:40:13.734Z,87.10
2019-02-28T05:42:44.244Z,87.10
2019-02-28T05:45:19.098Z,87.10
2019-02-28T05:47:49.564Z,87.20
2019-02-28T05:50:23.456Z,87.50
2019-02-28T05:52:56.922Z,87.20
2019-02-28T05:55:30.353Z,87.40
2019-02-28T05:58:00.863Z,87.60
2019-02-28T06:00:33.373Z,87.30
2019-02-28T06:03:03.516Z,87.20
2019-02-28T06:05:34.317Z,87.50
2019-02-28T06:08:07.247Z,87.50
2019-02-28T06:10:37.961Z,87.30
2019-02-28T06:13:11.510Z,87.00
2019-02-28T06:15:46.127Z,87.10
2019-02-28T06:18:22.969Z,87.20
2019-02-28T06:21:00.736Z,87.50
2019-02-28T06:23:31.666Z,87.40
2019-02-28T06:26:05.158Z,87.40
2019-02-28T06:28:35.999Z,87.80
2019-02-28T06:31:07.294Z,87.40
2019-02-28T06:33:39.451Z,87.60
2019-02-28T06:36:10.753Z,87.50
2019-02-28T06:38:43.995Z,87.80
2019-02-28T06:41:20.057Z,87.90
2019-02-28T06:43:53.898Z,87.80
2019-02-28T06:46:26.343Z,88.10
2019-02-28T06:49:01.635Z,88.80
2019-02-28T06:51:29.706Z,87.90
2019-02-28T06:54:26.867Z,88.30
2019-02-28T06:56:57.615Z,87.90
2019-02-28T06:59:28.390Z,88.00
2019-02-28T07:01:59.050Z,88.10
2019-02-28T07:04:30.140Z,87.90
2019-02-28T07:07:07.362Z,87.60
2019-02-28T07:09:39.605Z,87.50
2019-02-28T07:12:10.363Z,87.30
2019-02-28T07:14:44.490Z,87.40
2019-02-28T07:17:13.787Z,86.90
2019-02-28T07:19:44.526Z,86.40
2019-02-28T07:22:19.628Z,86.30
2019-02-28T07:24:50.307Z,86.00
2019-02-28T07:27:23.342Z,86.00
2019-02-28T07:29:53.453Z,85.80
2019-02-28T07:32:26.094Z,85.50
2019-02-28T07:34:59.723Z,84.80
2019-02-28T07:37:31.389Z,83.80
2019-02-28T07:40:05.114Z,81.90
2019-02-28T07:42:37.571Z,81.20
2019-02-28T07:45:12.357Z,81.80
2019-02-28T07:47:45.502Z,82.40
2019-02-28T07:50:20.474Z,81.40
2019-02-28T07:52:53.240Z,78.80
2019-02-28T07:55:27.199Z,77.80
2019-02-28T07:57:58.131Z,77.90
2019-02-28T08:00:28.885Z,78.20
2019-02-28T08:03:00.882Z,78.60
2019-02-28T08:05:31.810Z,78.00
2019-02-28T08:08:10.422Z,77.20
2019-02-28T08:10:47.940Z,75.30
2019-02-28T08:13:20.327Z,73.80
2019-02-28T08:15:53.304Z,72.10
2019-02-28T08:18:28.877Z,72.80
2019-02-28T08:21:05.348Z,72.10
2019-02-28T08:23:37.618Z,73.40
2019-02-28T08:26:09.232Z,74.90
2019-02-28T08:28:43.796Z,74.50
2019-02-28T08:31:15.564Z,72.90
2019-02-28T08:33:48.055Z,70.30
2019-02-28T08:36:22.161Z,69.70
2019-02-28T08:38:53.380Z,71.10
2019-02-28T08:41:25.704Z,68.40
2019-02-28T08:43:59.612Z,68.60
2019-02-28T08:46:33.085Z,70.40
2019-02-28T08:49:07.211Z,69.60
2019-02-28T08:51:38.810Z,69.00
2019-02-28T08:54:09.659Z,71.30
2019-02-28T08:56:46.078Z,71.60
2019-02-28T08:59:18.170Z,70.20
2019-02-28T09:01:47.960Z,69.50
2019-02-28T09:04:23.679Z,68.40
2019-02-28T09:06:58.721Z,70.10
2019-02-28T09:09:34.489Z,69.20
2019-02-28T09:12:10.898Z,64.80
2019-02-28T09:14:43.716Z,63.50
2019-02-28T09:17:18.583Z,62.90
2019-02-28T09:19:49.804Z,62.90
2019-02-28T09:22:26.994Z,62.30
2019-02-28T09:24:56.568Z,61.90
2019-02-28T09:27:27.309Z,59.50
2019-02-28T09:30:00.339Z,58.60
2019-02-28T09:32:31.216Z,58.50
2019-02-28T09:35:12.246Z,60.10
2019-02-28T09:37:38.979Z,59.10
2019-02-28T09:40:13.901Z,59.20
2019-02-28T09:42:47.992Z,58.80
2019-02-28T09:45:39.861Z,58.60
2019-02-28T09:48:12.054Z,60.20
2019-02-28T09:50:48.511Z,59.30
2019-02-28T09:53:19.343Z,57.70
2019-02-28T09:55:50.639Z,57.20
2019-02-28T09:58:21.382Z,57.70
2019-02-28T10:00:52.196Z,58.50
2019-02-28T10:03:22.972Z,60.00
2019-02-28T10:05:54.197Z,59.00
2019-02-28T10:08:24.841Z,56.80
2019-02-28T10:10:56.106Z,57.20
2019-02-28T10:13:28.643Z,58.00
2019-02-28T10:15:59.573Z,57.60
2019-02-28T10:18:35.540Z,56.50
2019-02-28T10:21:09.784Z,56.10
2019-02-28T10:23:42.986Z,55.30
2019-02-28T10:26:14.375Z,52.70
2019-02-28T10:28:46.541Z,53.90
2019-02-28T10:31:17.303Z,52.50
2019-02-28T10:33:49.501Z,50.40
2019-02-28T10:36:22.918Z,49.40
2019-02-28T10:38:53.544Z,49.70
2019-02-28T10:41:31.488Z,49.60
2019-02-28T10:44:03.966Z,50.80
2019-02-28T10:46:38.091Z,48.70
2019-02-28T10:49:08.907Z,48.90
2019-02-28T10:51:44.670Z,49.70
2019-02-28T10:54:15.420Z,51.10
2019-02-28T10:56:52.711Z,50.60
2019-02-28T10:59:26.661Z,49.60
2019-02-28T11:01:59.233Z,48.90
2019-02-28T11:04:30.244Z,49.30
2019-02-28T11:07:03.003Z,50.60
2019-02-28T11:09:35.923Z,50.10
2019-02-28T11:12:11.757Z,46.10
2019-02-28T11:14:43.912Z,46.20
2019-02-28T11:17:21.772Z,48.40
2019-02-28T11:19:55.304Z,45.70
2019-02-28T11:22:26.240Z,43.00
2019-02-28T11:25:03.528Z,41.90
2019-02-28T11:27:38.329Z,41.80
2019-02-28T11:30:13.898Z,44.00
2019-02-28T11:32:46.758Z,44.30
2019-02-28T11:35:23.165Z,41.60
2019-02-28T11:37:53.047Z,39.60
2019-02-28T11:40:28.630Z,37.10
2019-02-28T11:43:05.755Z,34.80
2019-02-28T11:45:36.969Z,37.90
2019-02-28T11:48:12.798Z,42.40
2019-02-28T11:50:47.500Z,41.30
2019-02-28T11:53:26.620Z,40.80
2019-02-28T11:55:57.554Z,42.20
2019-02-28T11:58:30.382Z,42.70
2019-02-28T12:01:02.293Z,41.40
2019-02-28T12:03:35.662Z,40.80
2019-02-28T12:06:08.044Z,41.10
2019-02-28T12:08:45.000Z,40.70
2019-02-28T12:11:18.209Z,42.50
2019-02-28T12:13:51.698Z,44.50
2019-02-28T12:16:24.447Z,45.00
2019-02-28T12:18:58.365Z,43.00
2019-02-28T12:21:31.541Z,45.30
2019-02-28T12:24:06.623Z,45.10
2019-02-28T12:26:37.481Z,43.20
2019-02-28T12:29:14.445Z,45.70
2019-02-28T12:31:46.316Z,48.60
2019-02-28T12:34:18.334Z,47.60
2019-02-28T12:36:55.158Z,47.50
2019-02-28T12:39:26.029Z,49.40
2019-02-28T12:41:59.533Z,50.10
2019-02-28T12:44:33.836Z,50.50
2019-02-28T12:47:09.365Z,52.70
2019-02-28T12:49:40.384Z,52.40
2019-02-28T12:52:14.562Z,52.90
2019-02-28T12:54:46.319Z,52.70
2019-02-28T12:57:19.308Z,53.50
2019-02-28T12:59:54.058Z,52.60
2019-02-28T13:02:24.952Z,53.00
2019-02-28T13:04:55.909Z,52.30
2019-02-28T13:07:26.617Z,53.00
2019-02-28T13:09:57.511Z,53.20
2019-02-28T13:12:37.474Z,53.40
2019-02-28T13:15:13.250Z,54.50
2019-02-28T13:17:51.605Z,54.60
2019-02-28T13:20:32.402Z,56.50
2019-02-28T13:23:01.921Z,57.70
2019-02-28T13:25:33.430Z,56.50
2019-02-28T13:28:04.816Z,55.60
2019-02-28T13:30:35.675Z,54.90
2019-02-28T13:33:11.030Z,54.70
2019-02-28T13:35:45.326Z,56.40
2019-02-28T13:38:19.238Z,56.60
2019-02-28T13:40:46.725Z,57.60
2019-02-28T13:43:24.179Z,57.40
2019-02-28T13:45:57.923Z,58.80
2019-02-28T13:48:44.749Z,59.10
2019-02-28T13:51:16.368Z,62.30
2019-02-28T13:53:47.272Z,62.10
2019-02-28T13:56:18.136Z,61.60
2019-02-28T13:58:53.624Z,63.20
2019-02-28T14:01:23.502Z,64.20
2019-02-28T14:03:55.882Z,64.60
2019-02-28T14:06:26.780Z,65.30
2019-02-28T14:08:57.650Z,65.00
2019-02-28T14:11:32.056Z,65.70
2019-02-28T14:14:06.304Z,66.40
2019-02-28T14:16:35.470Z,67.30
2019-02-28T14:19:06.456Z,67.50
2019-02-28T14:21:40.267Z,67.90
2019-02-28T14:24:13.965Z,68.10
2019-02-28T14:26:46.548Z,69.10
2019-02-28T14:29:17.813Z,69.50
2019-02-28T14:31:49.012Z,69.00
2019-02-28T14:34:26.221Z,69.50
2019-02-28T14:36:55.608Z,70.10
2019-02-28T14:39:26.866Z,70.80
2019-02-28T14:42:03.166Z,71.50
2019-02-28T14:44:34.111Z,72.40
2019-02-28T14:47:08.307Z,72.80
2019-02-28T14:49:44.547Z,72.80
2019-02-28T14:52:20.806Z,73.00
2019-02-28T14:54:57.159Z,72.70
2019-02-28T14:57:29.866Z,72.70
2019-02-28T15:00:06.415Z,72.90
2019-02-28T15:02:39.566Z,73.80
2019-02-28T15:05:16.717Z,74.50
2019-02-28T15:07:47.507Z,75.00
2019-02-28T15:10:20.222Z,75.00
2019-02-28T15:12:51.213Z,75.80
2019-02-28T15:15:22.575Z,76.40
2019-02-28T15:17:53.418Z,77.00
2019-02-28T15:20:38.665Z,77.70
2019-02-28T15:23:11.332Z,78.20
2019-02-28T15:25:55.750Z,78.60
2019-02-28T15:28:29.706Z,79.60
2019-02-28T15:31:08.631Z,79.60
2019-02-28T15:33:39.525Z,79.80
2019-02-28T15:36:10.585Z,80.70
2019-02-28T15:38:44.478Z,80.50
2019-02-28T15:41:16.387Z,80.70
2019-02-28T15:43:53.520Z,81.70
2019-02-28T15:46:27.569Z,81.20
2019-02-28T15:49:00.649Z,81.60
2019-02-28T15:51:33.444Z,82.20
2019-02-28T15:54:05.090Z,82.90
2019-02-28T15:56:39.053Z,83.10
2019-02-28T15:59:14.777Z,83.40
2019-02-28T16:01:48.164Z,84.00
2019-02-28T16:04:19.605Z,84.10
2019-02-28T16:06:56.612Z,84.50
2019-02-28T16:09:23.293Z,84.50
2019-02-28T16:11:54.233Z,84.90
2019-02-28T16:14:25.618Z,85.10
2019-02-28T16:16:56.842Z,85.20
2019-02-28T16:19:32.606Z,86.10
2019-02-28T16:22:05.590Z,86.20
2019-02-28T16:24:39.857Z,86.50
2019-02-28T16:27:15.119Z,87.20
2019-02-28T16:29:46.064Z,87.30
2019-02-28T16:32:19.408Z,87.60
2019-02-28T16:34:51.256Z,87.40
2019-02-28T16:37:24.892Z,87.70
2019-02-28T16:39:56.162Z,87.90
2019-02-28T16:42:32.158Z,88.00
2019-02-28T16:45:06.079Z,88.20
2019-02-28T16:47:38.228Z,88.40
2019-02-28T16:50:09.978Z,88.40
2019-02-28T16:52:41.435Z,89.50
2019-02-28T16:55:12.671Z,90.50
2019-02-28T16:57:47.103Z,91.40
2019-02-28T17:00:20.619Z,91.60
2019-02-28T17:02:53.733Z,92.10
2019-02-28T17:05:28.384Z,92.50
2019-02-28T17:08:00.518Z,92.10
2019-02-28T17:10:36.604Z,92.70
2019-02-28T17:13:26.860Z,92.70
2019-02-28T17:16:24.872Z,93.00
2019-02-28T17:19:00.027Z,93.10
2019-02-28T17:21:31.097Z,93.30
2019-02-28T17:24:08.559Z,93.70
2019-02-28T17:26:58.008Z,93.70
2019-02-28T17:29:37.745Z,93.60
2019-02-28T17:32:08.904Z,93.60
2019-02-28T17:34:43.925Z,94.00
2019-02-28T17:37:15.585Z,94.30
2019-02-28T17:39:51.177Z,94.30
2019-02-28T17:42:22.040Z,94.60
2019-02-28T17:45:16.452Z,94.30
2019-02-28T17:48:33.699Z,94.40
2019-02-28T17:51:14.945Z,94.30
2019-02-28T17:54:04.438Z,94.40
2019-02-28T17:57:06.352Z,94.60
2019-02-28T17:59:45.342Z,94.30
2019-02-28T18:02:47.713Z,94.30
2019-02-28T18:06:02.261Z,94.10
2019-02-28T18:09:09.555Z,94.00
2019-02-28T18:11:56.691Z,93.90
2019-02-28T18:15:00.273Z,94.40
2019-02-28T18:17:57.403Z,94.20
2019-02-28T18:21:00.798Z,94.20
2019-02-28T18:24:00.238Z,94.10
2019-02-28T18:27:03.742Z,94.00
2019-02-28T18:29:59.617Z,93.90
2019-02-28T18:32:33.312Z,94.20
2019-02-28T18:35:02.350Z,94.40
2019-02-28T18:37:34.516Z,94.60
2019-02-28T18:40:05.548Z,94.20
2019-02-28T18:42:36.508Z,94.60
2019-02-28T18:45:11.352Z,94.50
2019-02-28T18:47:47.602Z,94.60
2019-02-28T18:50:21.407Z,94.60
2019-02-28T18:52:51.863Z,94.90
2019-02-28T18:55:22.303Z,94.70
2019-02-28T18:57:54.583Z,94.80
2019-02-28T19:00:28.835Z,94.70
2019-02-28T19:03:03.429Z,95.00
2019-02-28T19:05:33.891Z,95.10
2019-02-28T19:08:10.283Z,95.30
2019-02-28T19:10:45.435Z,95.60
2019-02-28T19:13:18.555Z,95.60
2019-02-28T19:15:54.883Z,95.30
2019-02-28T19:18:26.452Z,95.30
2019-02-28T19:20:59.736Z,95.10
2019-02-28T19:23:31.624Z,95.20
2019-02-28T19:26:02.225Z,95.80
2019-02-28T19:28:35.880Z,96.00
2019-02-28T19:31:08.040Z,95.40
2019-02-28T19:33:40.932Z,95.10
2019-02-28T19:36:18.180Z,95.00
2019-02-28T19:38:50.212Z,95.10
2019-02-28T19:41:24.196Z,95.00
2019-02-28T19:43:58.829Z,95.30
2019-02-28T19:46:34.924Z,94.90
2019-02-28T19:49:05.530Z,94.80
2019-02-28T19:51:43.111Z,94.70
2019-02-28T19:54:15.845Z,95.20
2019-02-28T19:56:46.308Z,95.10
2019-02-28T19:59:21.880Z,94.80
2019-02-28T20:01:56.711Z,94.60
2019-02-28T20:04:27.265Z,94.90
2019-02-28T20:06:59.039Z,94.90
2019-02-28T20:09:36.275Z,95.40
2019-02-28T20:12:12.930Z,95.10
2019-02-28T20:14:44.768Z,95.20
2019-02-28T20:17:15.557Z,95.20
2019-02-28T20:19:52.381Z,95.30
2019-02-28T20:22:23.149Z,95.30
2019-02-28T20:24:57.379Z,95.30
2019-02-28T20:27:27.989Z,95.50
2019-02-28T20:29:58.532Z,95.20
2019-02-28T20:32:32.163Z,95.00
2019-02-28T20:35:02.939Z,95.10
2019-02-28T20:37:34.203Z,95.40
2019-02-28T20:40:06.841Z,95.40
2019-02-28T20:42:37.343Z,95.30
2019-02-28T20:45:11.054Z,95.00
2019-02-28T20:47:41.763Z,95.00
2019-02-28T20:50:15.812Z,94.90
2019-02-28T20:52:46.625Z,95.10
2019-02-28T20:55:17.169Z,95.20
2019-02-28T20:57:47.770Z,94.80
2019-02-28T21:00:20.873Z,94.80
2019-02-28T21:02:51.648Z,94.90
2019-02-28T21:05:22.157Z,95.00
2019-02-28T21:07:52.839Z,94.90
2019-02-28T21:10:23.591Z,94.90
2019-02-28T21:12:56.748Z,94.80
2019-02-28T21:15:27.415Z,94.70
2019-02-28T21:17:58.312Z,94.80
2019-02-28T21:20:28.953Z,94.70
2019-02-28T21:23:01.180Z,94.80
2019-02-28T21:25:34.936Z,94.80
2019-02-28T21:28:05.522Z,94.70
2019-02-28T21:30:36.090Z,94.80
2019-02-28T21:33:12.195Z,95.00
2019-02-28T21:35:42.995Z,94.70
2019-02-28T21:38:16.407Z,94.70
2019-02-28T21:40:54.120Z,94.60
2019-02-28T21:43:26.818Z,94.60
2019-02-28T21:45:57.401Z,94.60
2019-02-28T21:48:30.160Z,94.40
2019-02-28T21:51:02.702Z,94.50
2019-02-28T21:53:35.941Z,94.40
2019-02-28T21:56:06.933Z,94.40
2019-02-28T21:58:37.586Z,94.40
2019-02-28T22:01:08.071Z,94.30
2019-02-28T22:03:40.877Z,94.40
2019-02-28T22:06:14.998Z,94.30
2019-02-28T22:08:50.406Z,94.40
2019-02-28T22:11:20.946Z,94.40
2019-02-28T22:13:51.653Z,94.40
2019-02-28T22:16:22.188Z,94.50
2019-02-28T22:18:52.688Z,94.40
2019-02-28T22:21:24.239Z,94.30
2019-02-28T22:23:57.572Z,94.70
2019-02-28T22:26:28.332Z,94.60
2019-02-28T22:29:01.848Z,94.70
2019-02-28T22:32:08.168Z,94.60
2019-02-28T22:34:44.551Z,94.30
2019-02-28T22:37:19.656Z,94.20
2019-02-28T22:39:54.864Z,94.50
2019-02-28T22:42:27.049Z,94.50
2019-02-28T22:44:59.415Z,94.20
2019-02-28T22:47:30.033Z,94.10
2019-02-28T22:50:01.164Z,94.10
2019-02-28T22:52:32.347Z,93.90
2019-02-28T22:55:06.381Z,93.90
2019-02-28T22:57:37.096Z,93.80
2019-02-28T23:00:19.784Z,93.90
2019-02-28T23:02:54.441Z,94.00
2019-02-28T23:05:28.943Z,93.90
2019-02-28T23:07:59.403Z,93.90
2019-02-28T23:10:29.941Z,93.90
2019-02-28T23:13:00.549Z,93.80
2019-02-28T23:15:36.730Z,93.90
2019-02-28T23:18:08.741Z,93.90
2019-02-28T23:20:39.392Z,93.80
2019-02-28T23:23:12.644Z,93.80
2019-02-28T23:25:46.136Z,93.80
2019-02-28T23:28:31.597Z,93.90
2019-02-28T23:31:37.785Z,93.80
2019-02-28T23:34:16.456Z,93.70
2019-02-28T23:36:48.691Z,93.80
2019-02-28T23:39:24.625Z,93.80
2019-02-28T23:41:55.407Z,93.80
2019-02-28T23:44:25.856Z,93.80
2019-02-28T23:46:56.389Z,93.90
2019-02-28T23:49:28.480Z,93.70
2019-02-28T23:51:59.112Z,93.70
2019-02-28T23:54:29.914Z,93.80
2019-02-28T23:57:00.525Z,93.80
2019-02-28T23:59:31.088Z,94.10
